createdAt,value
2023-11-03T00:03:47.093Z,93913.09
2023-11-03T00:08:49.984Z,93918.66
2023-11-03T00:13:54.202Z,93934.09
2023-11-03T00:19:00.981Z,93947.56
2023-11-03T00:24:05.096Z,93944.88
2023-11-03T00:29:09.416Z,93958.38
2023-11-03T00:34:14.569Z,93959.50
2023-11-03T00:39:20.051Z,93965.19
2023-11-03T00:44:26.793Z,93974.41
2023-11-03T00:49:31.174Z,93979.81
2023-11-03T00:54:34.401Z,93992.50
2023-11-03T00:59:38.605Z,93998.22
2023-11-03T01:04:42.118Z,93991.72
2023-11-03T01:09:45.122Z,93992.81
2023-11-03T01:14:52.530Z,93997.75
2023-11-03T01:19:56.517Z,94005.84
2023-11-03T01:25:01.745Z,94003.47
2023-11-03T01:30:08.190Z,94003.47
2023-11-03T01:35:11.059Z,94007.59
2023-11-03T01:40:15.667Z,94003.00
2023-11-03T01:45:20.117Z,94005.25
2023-11-03T01:50:24.400Z,94006.81
2023-11-03T01:55:27.462Z,94013.34
2023-11-03T02:00:32.476Z,94020.63
2023-11-03T02:05:35.428Z,94023.00
2023-11-03T02:10:43.372Z,94025.22
2023-11-03T02:15:47.790Z,94023.94
2023-11-03T02:20:50.654Z,94029.34
2023-11-03T02:25:55.183Z,94014.28
2023-11-03T02:30:58.114Z,94009.69
2023-11-03T02:36:00.985Z,94013.81
2023-11-03T02:41:06.185Z,94016.50
2023-11-03T02:46:09.226Z,94025.22
2023-11-03T02:51:12.590Z,94027.00
2023-11-03T02:56:25.189Z,94042.38
2023-11-03T03:01:29.236Z,94023.03
2023-11-03T03:06:32.089Z,94019.06
2023-11-03T03:11:36.251Z,94019.81
2023-11-03T03:16:39.907Z,94017.13
2023-11-03T03:21:42.855Z,94023.66
2023-11-03T03:26:47.219Z,94024.75
2023-11-03T03:31:50.087Z,94026.66
2023-11-03T03:36:53.318Z,94027.78
2023-11-03T03:41:57.508Z,94036.19
2023-11-03T03:47:00.421Z,94041.56
2023-11-03T03:52:04.001Z,94041.75
2023-11-03T03:57:08.212Z,94044.91
2023-11-03T04:02:11.075Z,94041.09
2023-11-03T04:07:14.028Z,94047.94
2023-11-03T04:12:18.259Z,94055.72
2023-11-03T04:17:21.819Z,94053.63
2023-11-03T04:22:24.677Z,94056.34
2023-11-03T04:27:28.889Z,94054.13
2023-11-03T04:32:31.866Z,94042.06
2023-11-03T04:37:34.791Z,94026.66
2023-11-03T04:42:38.967Z,94033.97
2023-11-03T04:47:42.096Z,94023.50
2023-11-03T04:52:45.127Z,94027.63
2023-11-03T04:57:49.364Z,94035.41
2023-11-03T05:02:53.543Z,94034.94
2023-11-03T05:07:56.389Z,94031.59
2023-11-03T05:13:01.250Z,94027.31
2023-11-03T05:18:05.073Z,94009.53
2023-11-03T05:23:07.991Z,94014.63
2023-11-03T05:28:12.274Z,94031.91
2023-11-03T05:33:18.795Z,94046.81
2023-11-03T05:38:21.747Z,94048.25
2023-11-03T05:43:25.969Z,94041.41
2023-11-03T05:48:28.905Z,94035.25
2023-11-03T05:53:31.944Z,94027.44
2023-11-03T05:58:36.134Z,94034.59
2023-11-03T06:03:39.572Z,94038.69
2023-11-03T06:08:42.453Z,94043.94
2023-11-03T06:13:46.650Z,94051.72
2023-11-03T06:18:52.872Z,94050.44
2023-11-03T06:23:56.689Z,94069.81
2023-11-03T06:29:00.926Z,94072.50
2023-11-03T06:34:03.977Z,94071.06
2023-11-03T06:39:07.086Z,94080.94
2023-11-03T06:44:12.782Z,94079.97
2023-11-03T06:49:15.766Z,94088.88
2023-11-03T06:54:20.362Z,94093.03
2023-11-03T06:59:24.598Z,94089.53
2023-11-03T07:04:27.913Z,94101.28
2023-11-03T07:09:31.452Z,94090.94
2023-11-03T07:14:36.516Z,94107.28
2023-11-03T07:19:39.474Z,94129.84
2023-11-03T07:24:42.449Z,94151.94
2023-11-03T07:29:47.670Z,94167.81
2023-11-03T07:34:51.232Z,94169.09
2023-11-03T07:39:55.147Z,94169.56
2023-11-03T07:44:59.606Z,94168.44
2023-11-03T07:50:02.523Z,94161.94
2023-11-03T07:55:06.908Z,94166.22
2023-11-03T08:00:13.286Z,94177.81
2023-11-03T08:05:16.994Z,94193.25
2023-11-03T08:10:20.133Z,94205.16
2023-11-03T08:15:24.354Z,94207.06
2023-11-03T08:20:27.322Z,94213.72
2023-11-03T08:25:31.168Z,94214.69
2023-11-03T08:30:35.549Z,94212.00
2023-11-03T08:35:38.468Z,94219.75
2023-11-03T08:40:41.405Z,94221.81
2023-11-03T08:45:46.673Z,94229.31
2023-11-03T08:50:50.238Z,94232.16
2023-11-03T08:55:53.153Z,94225.97
2023-11-03T09:00:58.938Z,94229.28
2023-11-03T09:06:03.355Z,94233.91
2023-11-03T09:11:07.145Z,94232.47
2023-11-03T09:16:11.391Z,94232.00
2023-11-03T09:21:14.424Z,94227.53
2023-11-03T09:26:17.270Z,94232.31
2023-11-03T09:31:21.474Z,94232.31
2023-11-03T09:36:24.394Z,94231.34
2023-11-03T09:41:28.591Z,94225.63
2023-11-03T09:46:34.321Z,94227.06
2023-11-03T09:51:40.692Z,94229.78
2023-11-03T09:56:46.233Z,94223.09
2023-11-03T10:01:50.465Z,94224.53
2023-11-03T10:06:53.570Z,94234.38
2023-11-03T10:11:57.165Z,94221.16
2023-11-03T10:17:01.475Z,94214.84
2023-11-03T10:22:07.649Z,94215.75
2023-11-03T10:27:13.159Z,94220.22
2023-11-03T10:32:17.586Z,94213.53
2023-11-03T10:37:22.363Z,94205.28
2023-11-03T10:42:26.392Z,94214.31
2023-11-03T10:47:31.327Z,94210.03
2023-11-03T10:52:42.468Z,94213.03
2023-11-03T10:57:45.493Z,94207.47
2023-11-03T11:02:55.374Z,94205.25
2023-11-03T11:08:00.887Z,94200.97
2023-11-03T11:13:05.825Z,94191.75
2023-11-03T11:18:17.152Z,94202.06
2023-11-03T11:23:21.015Z,94202.22
2023-11-03T11:28:34.125Z,94196.03
2023-11-03T11:34:01.326Z,94202.41
2023-11-03T11:39:15.017Z,94200.47
2023-11-03T11:44:21.312Z,94192.53
2023-11-03T11:49:27.666Z,94187.13
2023-11-03T11:54:30.992Z,94194.91
2023-11-03T11:59:33.866Z,94194.09
2023-11-03T12:04:41.588Z,94206.38
2023-11-03T12:09:44.535Z,94206.19
2023-11-03T12:14:48.552Z,94200.31
2023-11-03T12:19:53.446Z,94194.28
2023-11-03T12:24:57.288Z,94197.94
2023-11-03T12:30:04.905Z,94192.53
2023-11-03T12:35:12.523Z,94184.91
2023-11-03T12:40:24.071Z,94187.75
2023-11-03T12:45:27.396Z,94177.41
2023-11-03T12:50:35.261Z,94176.94
2023-11-03T12:55:38.358Z,94179.81
2023-11-03T13:00:41.676Z,94176.13
2023-11-03T13:05:48.500Z,94171.25
2023-11-03T13:10:54.602Z,94167.41
2023-11-03T13:15:57.553Z,94176.97
2023-11-03T13:21:01.784Z,94175.53
2023-11-03T13:26:05.203Z,94180.59
2023-11-03T13:31:08.148Z,94177.28
2023-11-03T13:36:14.577Z,94180.16
2023-11-03T13:41:17.616Z,94183.66
2023-11-03T13:46:22.001Z,94181.72
2023-11-03T13:51:26.496Z,94193.97
2023-11-03T13:56:29.460Z,94195.91
2023-11-03T14:01:32.612Z,94208.59
2023-11-03T14:06:37.882Z,94215.59
2023-11-03T14:11:43.235Z,94234.03
2023-11-03T14:16:46.110Z,94230.88
2023-11-03T14:21:50.931Z,94239.75
2023-11-03T14:26:53.868Z,94248.69
2023-11-03T14:31:56.810Z,94252.34
2023-11-03T14:37:04.966Z,94261.22
2023-11-03T14:42:10.393Z,94272.50
2023-11-03T14:47:13.931Z,94276.47
2023-11-03T14:52:19.398Z,94274.75
2023-11-03T14:57:22.357Z,94282.22
2023-11-03T15:02:26.180Z,94286.81
2023-11-03T15:07:31.848Z,94291.09
2023-11-03T15:12:35.453Z,94293.03
2023-11-03T15:17:39.392Z,94293.81
2023-11-03T15:22:45.837Z,94297.47
2023-11-03T15:27:50.438Z,94304.63
2023-11-03T15:32:53.715Z,94314.50
2023-11-03T15:37:57.933Z,94314.50
2023-11-03T15:43:00.838Z,94316.53
2023-11-03T15:48:03.987Z,94318.78
2023-11-03T15:53:15.443Z,94321.47
2023-11-03T15:58:20.320Z,94327.34
2023-11-03T16:03:24.302Z,94334.66
2023-11-03T16:08:29.386Z,94333.72
2023-11-03T16:13:32.352Z,94348.34
2023-11-03T16:18:35.385Z,94356.75
2023-11-03T16:23:39.657Z,94362.63
2023-11-03T16:28:42.591Z,94371.84
2023-11-03T16:33:45.573Z,94373.75
2023-11-03T16:38:51.086Z,94388.06
2023-11-03T16:43:54.832Z,94394.75
2023-11-03T16:48:58.159Z,94401.25
2023-11-03T16:54:02.524Z,94409.97
2023-11-03T16:59:05.600Z,94418.72
2023-11-03T17:04:09.398Z,94413.31
2023-11-03T17:09:14.184Z,94420.31
2023-11-03T17:14:18.108Z,94432.56
2023-11-03T17:19:21.010Z,94439.41
2023-11-03T17:24:25.216Z,94430.47
2023-11-03T17:29:30.157Z,94441.78
2023-11-03T17:34:33.131Z,94457.69
2023-11-03T17:39:37.791Z,94464.19
2023-11-03T17:44:40.656Z,94466.41
2023-11-03T17:49:44.433Z,94474.22
2023-11-03T17:54:48.676Z,94478.03
2023-11-03T17:59:51.584Z,94486.13
2023-11-03T18:04:54.542Z,94488.03
2023-11-03T18:09:59.015Z,94495.03
2023-11-03T18:15:02.357Z,94487.88
2023-11-03T18:20:09.888Z,94495.28
2023-11-03T18:25:14.188Z,94489.41
2023-11-03T18:30:17.193Z,94490.06
2023-11-03T18:35:20.428Z,94501.16
2023-11-03T18:40:28.205Z,94492.25
2023-11-03T18:45:32.345Z,94478.88
2023-11-03T18:51:24.000Z,94486.22
2023-11-03T18:57:09.222Z,94489.50
2023-11-03T19:02:17.077Z,94497.91
2023-11-03T19:11:52.038Z,94505.69
2023-11-03T19:16:54.876Z,94506.50
2023-11-03T19:21:59.787Z,94517.41
2023-11-03T19:27:04.048Z,94518.66
2023-11-03T19:32:08.656Z,94520.03
2023-11-03T19:37:13.427Z,94522.25
2023-11-03T19:42:18.272Z,94529.06
2023-11-03T19:47:21.241Z,94542.06
2023-11-03T19:52:24.101Z,94547.78
2023-11-03T19:57:28.348Z,94547.75
2023-11-03T20:02:31.976Z,94548.94
2023-11-03T20:07:34.936Z,94562.44
2023-11-03T20:12:39.186Z,94561.47
2023-11-03T20:17:42.167Z,94550.16
2023-11-03T20:22:45.168Z,94549.69
2023-11-03T20:27:50.008Z,94542.28
2023-11-03T20:32:54.617Z,94544.34
2023-11-03T20:37:58.364Z,94546.56
2023-11-03T20:43:04.392Z,94549.56
2023-11-03T20:48:07.358Z,94553.38
2023-11-03T20:53:10.660Z,94572.75
2023-11-03T20:58:15.219Z,94569.28
2023-11-03T21:03:18.272Z,94573.84
2023-11-03T21:08:21.269Z,94588.16
2023-11-03T21:13:27.120Z,94584.66
2023-11-03T21:18:30.106Z,94584.94
2023-11-03T21:23:33.790Z,94584.94
2023-11-03T21:28:38.251Z,94593.84
2023-11-03T21:33:41.471Z,94596.66
2023-11-03T21:38:44.452Z,94594.91
2023-11-03T21:43:50.531Z,94601.69
2023-11-03T21:48:54.036Z,94610.09
2023-11-03T21:53:57.909Z,94603.28
2023-11-03T21:59:02.103Z,94614.38
2023-11-03T22:04:05.312Z,94614.66
2023-11-03T22:09:10.309Z,94630.88
2023-11-03T22:14:14.758Z,94631.97
2023-11-03T22:19:17.686Z,94629.56
2023-11-03T22:24:20.616Z,94627.19
2023-11-03T22:29:25.461Z,94626.88
2023-11-03T22:34:28.617Z,94627.97
2023-11-03T22:39:33.706Z,94637.66
2023-11-03T22:44:37.961Z,94644.97
2023-11-03T22:49:40.871Z,94646.88
2023-11-03T22:54:43.810Z,94661.94
2023-11-03T22:59:48.065Z,94661.94
2023-11-03T23:04:51.024Z,94670.84
2023-11-03T23:09:54.289Z,94668.75
2023-11-03T23:14:58.534Z,94665.84
2023-11-03T23:20:02.772Z,94673.66
2023-11-03T23:25:06.367Z,94668.88
2023-11-03T23:30:11.705Z,94673.94
2023-11-03T23:35:14.633Z,94677.75
2023-11-03T23:40:17.628Z,94678.56
2023-11-03T23:45:22.324Z,94676.97
2023-11-03T23:50:25.203Z,94674.28
2023-11-03T23:55:28.181Z,94672.66
